sensor_id;sensor_type;location;lat;lon;timestamp;pressure;altitude;pressure_sealevel;temperature;humidity
18569;BME280;14780;48.316;-1.050;2023-05-12T00:01:08;99231.59;;;23.77;40.29
18569;BME280;14780;48.316;-1.050;2023-05-12T00:03:53;99229.97;;;23.76;40.26
18569;BME280;14780;48.316;-1.050;2023-05-12T00:06:38;99230.75;;;23.76;40.29
18569;BME280;14780;48.316;-1.050;2023-05-12T00:09:23;99230.47;;;23.73;40.31
18569;BME280;14780;48.316;-1.050;2023-05-12T00:12:08;99225.31;;;23.71;40.39
18569;BME280;14780;48.316;-1.050;2023-05-12T00:14:53;99226.94;;;23.72;40.32
18569;BME280;14780;48.316;-1.050;2023-05-12T00:17:38;99225.56;;;23.70;40.32
18569;BME280;14780;48.316;-1.050;2023-05-12T00:20:22;99228.84;;;23.72;40.28
18569;BME280;14780;48.316;-1.050;2023-05-12T00:23:07;99225.28;;;23.66;40.42
18569;BME280;14780;48.316;-1.050;2023-05-12T00:25:51;99213.50;;;23.66;40.32
18569;BME280;14780;48.316;-1.050;2023-05-12T00:28:36;99221.41;;;23.62;40.48
18569;BME280;14780;48.316;-1.050;2023-05-12T00:31:20;99212.16;;;23.63;40.38
18569;BME280;14780;48.316;-1.050;2023-05-12T00:34:05;99220.34;;;23.63;40.36
18569;BME280;14780;48.316;-1.050;2023-05-12T00:36:50;99214.06;;;23.63;40.34
18569;BME280;14780;48.316;-1.050;2023-05-12T00:39:35;99209.69;;;23.62;40.37
18569;BME280;14780;48.316;-1.050;2023-05-12T00:42:20;99213.53;;;23.61;40.43
18569;BME280;14780;48.316;-1.050;2023-05-12T00:45:05;99210.50;;;23.62;40.31
18569;BME280;14780;48.316;-1.050;2023-05-12T00:47:51;99213.53;;;23.61;40.37
18569;BME280;14780;48.316;-1.050;2023-05-12T00:50:37;99212.69;;;23.60;40.32
18569;BME280;14780;48.316;-1.050;2023-05-12T00:53:22;99205.31;;;23.61;40.36
18569;BME280;14780;48.316;-1.050;2023-05-12T00:56:07;99203.41;;;23.61;40.33
18569;BME280;14780;48.316;-1.050;2023-05-12T00:58:52;99201.22;;;23.58;40.25
18569;BME280;14780;48.316;-1.050;2023-05-12T01:01:37;99210.78;;;23.61;40.24
18569;BME280;14780;48.316;-1.050;2023-05-12T01:04:22;99206.13;;;23.61;40.21
18569;BME280;14780;48.316;-1.050;2023-05-12T01:07:13;99201.72;;;23.55;40.42
18569;BME280;14780;48.316;-1.050;2023-05-12T01:09:59;99205.59;;;23.59;40.31
18569;BME280;14780;48.316;-1.050;2023-05-12T01:12:44;99208.31;;;23.59;40.35
18569;BME280;14780;48.316;-1.050;2023-05-12T01:15:31;99206.13;;;23.61;40.39
18569;BME280;14780;48.316;-1.050;2023-05-12T01:18:19;99200.13;;;23.59;40.35
18569;BME280;14780;48.316;-1.050;2023-05-12T01:21:05;99199.03;;;23.60;40.38
18569;BME280;14780;48.316;-1.050;2023-05-12T01:23:58;99199.56;;;23.57;40.33
18569;BME280;14780;48.316;-1.050;2023-05-12T01:26:45;99204.19;;;23.57;40.36
18569;BME280;14780;48.316;-1.050;2023-05-12T01:29:31;99196.25;;;23.55;40.36
18569;BME280;14780;48.316;-1.050;2023-05-12T01:32:18;99198.44;;;23.53;40.32
18569;BME280;14780;48.316;-1.050;2023-05-12T01:35:02;99209.38;;;23.53;40.32
18569;BME280;14780;48.316;-1.050;2023-05-12T01:37:47;99206.66;;;23.53;40.33
18569;BME280;14780;48.316;-1.050;2023-05-12T01:40:32;99203.91;;;23.53;40.25
18569;BME280;14780;48.316;-1.050;2023-05-12T01:43:17;99201.47;;;23.52;40.36
18569;BME280;14780;48.316;-1.050;2023-05-12T01:46:02;99200.63;;;23.51;40.22
18569;BME280;14780;48.316;-1.050;2023-05-12T01:48:47;99199.00;;;23.50;40.20
18569;BME280;14780;48.316;-1.050;2023-05-12T01:51:32;99197.34;;;23.49;40.35
18569;BME280;14780;48.316;-1.050;2023-05-12T01:54:16;99198.72;;;23.47;40.27
18569;BME280;14780;48.316;-1.050;2023-05-12T01:57:01;99200.59;;;23.46;40.22
18569;BME280;14780;48.316;-1.050;2023-05-12T01:59:45;99200.59;;;23.46;40.21
18569;BME280;14780;48.316;-1.050;2023-05-12T02:02:30;99195.94;;;23.42;40.25
18569;BME280;14780;48.316;-1.050;2023-05-12T02:05:17;99195.94;;;23.42;40.27
18569;BME280;14780;48.316;-1.050;2023-05-12T02:08:02;99201.41;;;23.42;40.31
18569;BME280;14780;48.316;-1.050;2023-05-12T02:10:47;99194.03;;;23.38;40.32
18569;BME280;14780;48.316;-1.050;2023-05-12T02:13:32;99199.47;;;23.38;40.30
18569;BME280;14780;48.316;-1.050;2023-05-12T02:16:18;99199.47;;;23.38;40.24
18569;BME280;14780;48.316;-1.050;2023-05-12T02:19:02;99188.81;;;23.36;40.27
18569;BME280;14780;48.316;-1.050;2023-05-12T02:21:47;99198.34;;;23.33;40.27
18569;BME280;14780;48.316;-1.050;2023-05-12T02:24:32;99197.84;;;23.37;40.13
18569;BME280;14780;48.316;-1.050;2023-05-12T02:27:17;99196.47;;;23.34;40.25
18569;BME280;14780;48.316;-1.050;2023-05-12T02:30:01;99205.50;;;23.35;40.04
18569;BME280;14780;48.316;-1.050;2023-05-12T02:32:46;99199.19;;;23.34;40.28
18569;BME280;14780;48.316;-1.050;2023-05-12T02:35:33;99205.75;;;23.33;40.21
18569;BME280;14780;48.316;-1.050;2023-05-12T02:38:18;99195.06;;;23.32;40.22
18569;BME280;14780;48.316;-1.050;2023-05-12T02:41:02;99203.81;;;23.33;40.21
18569;BME280;14780;48.316;-1.050;2023-05-12T02:43:48;99195.38;;;23.35;40.15
18569;BME280;14780;48.316;-1.050;2023-05-12T02:46:33;99205.50;;;23.35;40.11
18569;BME280;14780;48.316;-1.050;2023-05-12T02:49:17;99198.09;;;23.35;40.10
18569;BME280;14780;48.316;-1.050;2023-05-12T02:52:02;99200.03;;;23.35;40.18
18569;BME280;14780;48.316;-1.050;2023-05-12T02:54:47;99195.91;;;23.32;40.22
18569;BME280;14780;48.316;-1.050;2023-05-12T02:57:31;99195.63;;;23.33;40.13
18569;BME280;14780;48.316;-1.050;2023-05-12T03:00:17;99194.56;;;23.35;40.04
18569;BME280;14780;48.316;-1.050;2023-05-12T03:03:02;99193.72;;;23.34;40.10
18569;BME280;14780;48.316;-1.050;2023-05-12T03:05:47;99203.81;;;23.33;40.17
18569;BME280;14780;48.316;-1.050;2023-05-12T03:08:33;99204.66;;;23.34;40.04
18569;BME280;14780;48.316;-1.050;2023-05-12T03:11:18;99204.66;;;23.34;39.98
18569;BME280;14780;48.316;-1.050;2023-05-12T03:14:02;99210.38;;;23.33;40.02
18569;BME280;14780;48.316;-1.050;2023-05-12T03:16:47;99207.63;;;23.33;40.11
18569;BME280;14780;48.316;-1.050;2023-05-12T03:19:31;99204.91;;;23.28;40.10
18569;BME280;14780;48.316;-1.050;2023-05-12T03:22:16;99203.53;;;23.30;39.99
18569;BME280;14780;48.316;-1.050;2023-05-12T03:25:01;99202.97;;;23.28;40.04
18569;BME280;14780;48.316;-1.050;2023-05-12T03:27:48;99202.44;;;23.26;40.11
18569;BME280;14780;48.316;-1.050;2023-05-12T03:30:33;99205.41;;;23.25;40.15
18569;BME280;14780;48.316;-1.050;2023-05-12T03:33:18;99207.91;;;23.26;40.07
18569;BME280;14780;48.316;-1.050;2023-05-12T03:36:03;99205.41;;;23.25;40.16
18569;BME280;14780;48.316;-1.050;2023-05-12T03:38:48;99201.59;;;23.26;40.13
18569;BME280;14780;48.316;-1.050;2023-05-12T03:41:33;99201.59;;;23.26;40.13
18569;BME280;14780;48.316;-1.050;2023-05-12T03:44:18;99202.69;;;23.25;40.09
18569;BME280;14780;48.316;-1.050;2023-05-12T03:47:02;99202.13;;;23.23;40.13
18569;BME280;14780;48.316;-1.050;2023-05-12T03:49:47;99196.94;;;23.21;40.11
18569;BME280;14780;48.316;-1.050;2023-05-12T03:52:32;99196.94;;;23.21;40.17
18569;BME280;14780;48.316;-1.050;2023-05-12T03:55:16;99201.59;;;23.21;40.10
18569;BME280;14780;48.316;-1.050;2023-05-12T03:58:01;99204.31;;;23.21;40.10
18569;BME280;14780;48.316;-1.050;2023-05-12T04:00:46;99199.38;;;23.18;40.02
18569;BME280;14780;48.316;-1.050;2023-05-12T04:03:33;99207.84;;;23.16;40.06
18569;BME280;14780;48.316;-1.050;2023-05-12T04:06:18;99203.44;;;23.15;40.10
18569;BME280;14780;48.316;-1.050;2023-05-12T04:09:03;99206.44;;;23.14;40.03
18569;BME280;14780;48.316;-1.050;2023-05-12T04:11:48;99214.63;;;23.14;40.16
18569;BME280;14780;48.316;-1.050;2023-05-12T04:14:32;99199.88;;;23.15;40.03
18569;BME280;14780;48.316;-1.050;2023-05-12T04:17:17;99218.44;;;23.13;40.02
18569;BME280;14780;48.316;-1.050;2023-05-12T04:20:02;99211.31;;;23.12;40.05
18569;BME280;14780;48.316;-1.050;2023-05-12T04:22:47;99205.84;;;23.12;40.08
18569;BME280;14780;48.316;-1.050;2023-05-12T04:25:32;99217.34;;;23.14;40.06
18569;BME280;14780;48.316;-1.050;2023-05-12T04:28:17;99209.66;;;23.11;40.10
18569;BME280;14780;48.316;-1.050;2023-05-12T04:31:02;99223.06;;;23.12;40.03
18569;BME280;14780;48.316;-1.050;2023-05-12T04:33:48;99222.22;;;23.12;40.10
18569;BME280;14780;48.316;-1.050;2023-05-12T04:36:33;99223.91;;;23.13;40.09
18569;BME280;14780;48.316;-1.050;2023-05-12T04:39:17;99227.69;;;23.12;40.00
18569;BME280;14780;48.316;-1.050;2023-05-12T04:42:02;99223.91;;;23.13;40.05
18569;BME280;14780;48.316;-1.050;2023-05-12T04:44:47;99223.91;;;23.13;40.10
18569;BME280;14780;48.316;-1.050;2023-05-12T04:47:32;99228.78;;;23.11;40.09
18569;BME280;14780;48.316;-1.050;2023-05-12T04:50:16;99229.88;;;23.10;40.09
18569;BME280;14780;48.316;-1.050;2023-05-12T04:53:01;99232.34;;;23.11;39.96
18569;BME280;14780;48.316;-1.050;2023-05-12T04:55:46;99227.13;;;23.10;40.01
18569;BME280;14780;48.316;-1.050;2023-05-12T04:58:30;99232.03;;;23.08;40.07
18569;BME280;14780;48.316;-1.050;2023-05-12T05:01:15;99230.72;;;23.10;39.96
18569;BME280;14780;48.316;-1.050;2023-05-12T05:04:00;99233.69;;;23.09;39.95
18569;BME280;14780;48.316;-1.050;2023-05-12T05:06:45;99233.13;;;23.07;39.96
18569;BME280;14780;48.316;-1.050;2023-05-12T05:09:29;99242.13;;;23.07;39.96
18569;BME280;14780;48.316;-1.050;2023-05-12T05:12:14;99249.50;;;23.07;39.99
18569;BME280;14780;48.316;-1.050;2023-05-12T05:14:59;99250.31;;;23.02;39.97
18569;BME280;14780;48.316;-1.050;2023-05-12T05:17:43;99243.47;;;23.05;39.95
18569;BME280;14780;48.316;-1.050;2023-05-12T05:20:32;99251.66;;;23.05;39.95
18569;BME280;14780;48.316;-1.050;2023-05-12T05:23:17;99253.28;;;23.01;40.10
18569;BME280;14780;48.316;-1.050;2023-05-12T05:26:02;99252.44;;;23.00;40.11
18569;BME280;14780;48.316;-1.050;2023-05-12T05:28:46;99254.94;;;23.02;40.04
18569;BME280;14780;48.316;-1.050;2023-05-12T05:31:31;99253.28;;;23.01;40.01
18569;BME280;14780;48.316;-1.050;2023-05-12T05:34:15;99254.94;;;23.02;40.09
18569;BME280;14780;48.316;-1.050;2023-05-12T05:37:00;99259.56;;;23.01;40.07
18569;BME280;14780;48.316;-1.050;2023-05-12T05:39:45;99261.72;;;22.99;40.08
18569;BME280;14780;48.316;-1.050;2023-05-12T05:42:30;99262.56;;;23.00;40.14
18569;BME280;14780;48.316;-1.050;2023-05-12T05:45:14;99259.25;;;22.98;40.19
18569;BME280;14780;48.316;-1.050;2023-05-12T05:47:59;99261.44;;;22.96;40.25
18569;BME280;14780;48.316;-1.050;2023-05-12T05:50:44;99271.00;;;22.98;40.22
18569;BME280;14780;48.316;-1.050;2023-05-12T05:53:29;99266.88;;;22.96;40.20
18569;BME280;14780;48.316;-1.050;2023-05-12T05:56:14;99270.16;;;22.98;40.19
18569;BME280;14780;48.316;-1.050;2023-05-12T05:58:59;99273.97;;;22.97;40.26
18569;BME280;14780;48.316;-1.050;2023-05-12T06:01:46;99268.22;;;22.88;40.37
18569;BME280;14780;48.316;-1.050;2023-05-12T06:04:31;99280.47;;;22.91;40.35
18569;BME280;14780;48.316;-1.050;2023-05-12T06:07:16;99281.63;;;22.95;40.36
18569;BME280;14780;48.316;-1.050;2023-05-12T06:10:00;99277.81;;;22.96;40.59
18569;BME280;14780;48.316;-1.050;2023-05-12T06:12:45;99286.03;;;23.01;40.63
18569;BME280;14780;48.316;-1.050;2023-05-12T06:15:31;99287.69;;;23.02;40.52
18569;BME280;14780;48.316;-1.050;2023-05-12T06:18:16;99290.69;;;23.05;40.63
18569;BME280;14780;48.316;-1.050;2023-05-12T06:21:00;99292.09;;;23.08;40.56
18569;BME280;14780;48.316;-1.050;2023-05-12T06:23:45;99284.16;;;23.06;40.67
18569;BME280;14780;48.316;-1.050;2023-05-12T06:26:29;99298.34;;;23.08;40.82
18569;BME280;14780;48.316;-1.050;2023-05-12T06:29:14;99299.19;;;23.09;40.74
18569;BME280;14780;48.316;-1.050;2023-05-12T06:31:59;99295.38;;;23.10;40.86
18569;BME280;14780;48.316;-1.050;2023-05-12T06:34:44;99291.84;;;23.09;40.74
18569;BME280;14780;48.316;-1.050;2023-05-12T06:37:29;99299.75;;;23.11;40.72
18569;BME280;14780;48.316;-1.050;2023-05-12T06:40:14;99297.00;;;23.11;40.92
18569;BME280;14780;48.316;-1.050;2023-05-12T06:42:59;99298.09;;;23.10;40.86
18569;BME280;14780;48.316;-1.050;2023-05-12T06:45:43;99300.56;;;23.11;40.98
18569;BME280;14780;48.316;-1.050;2023-05-12T06:48:28;99302.78;;;23.14;40.94
18569;BME280;14780;48.316;-1.050;2023-05-12T06:51:13;99307.44;;;23.14;40.97
18569;BME280;14780;48.316;-1.050;2023-05-12T06:53:57;99312.88;;;23.14;40.78
18569;BME280;14780;48.316;-1.050;2023-05-12T06:56:42;99306.84;;;23.12;41.00
18569;BME280;14780;48.316;-1.050;2023-05-12T06:59:26;99310.09;;;23.09;40.99
18569;BME280;14780;48.316;-1.050;2023-05-12T07:02:12;99314.47;;;23.10;40.88
18569;BME280;14780;48.316;-1.050;2023-05-12T07:04:56;99307.94;;;23.11;41.00
18569;BME280;14780;48.316;-1.050;2023-05-12T07:07:41;99306.28;;;23.10;41.01
18569;BME280;14780;48.316;-1.050;2023-05-12T07:10:26;99304.94;;;23.12;41.04
18569;BME280;14780;48.316;-1.050;2023-05-12T07:13:10;99300.31;;;23.13;41.10
18569;BME280;14780;48.316;-1.050;2023-05-12T07:15:56;99303.06;;;23.13;41.07
18569;BME280;14780;48.316;-1.050;2023-05-12T07:18:41;99306.59;;;23.13;40.99
18569;BME280;14780;48.316;-1.050;2023-05-12T07:21:26;99299.22;;;23.14;41.10
18569;BME280;14780;48.316;-1.050;2023-05-12T07:24:12;99307.44;;;23.14;41.12
18569;BME280;14780;48.316;-1.050;2023-05-12T07:26:57;99307.44;;;23.14;41.15
18569;BME280;14780;48.316;-1.050;2023-05-12T07:29:42;99310.16;;;23.14;41.17
18569;BME280;14780;48.316;-1.050;2023-05-12T07:32:26;99306.13;;;23.16;41.19
18569;BME280;14780;48.316;-1.050;2023-05-12T07:35:11;99301.72;;;23.15;41.22
18569;BME280;14780;48.316;-1.050;2023-05-12T07:37:56;99315.94;;;23.17;41.36
18569;BME280;14780;48.316;-1.050;2023-05-12T07:40:41;99310.19;;;23.19;41.32
18569;BME280;14780;48.316;-1.050;2023-05-12T07:43:26;99305.56;;;23.19;41.21
18569;BME280;14780;48.316;-1.050;2023-05-12T07:46:11;99309.09;;;23.20;41.17
18569;BME280;14780;48.316;-1.050;2023-05-12T07:48:55;99310.19;;;23.19;41.16
18569;BME280;14780;48.316;-1.050;2023-05-12T07:51:41;99310.78;;;23.26;41.40
18569;BME280;14780;48.316;-1.050;2023-05-12T07:54:26;99311.34;;;23.23;41.37
18569;BME280;14780;48.316;-1.050;2023-05-12T07:57:10;99312.97;;;23.24;41.47
18569;BME280;14780;48.316;-1.050;2023-05-12T07:59:55;99309.16;;;23.25;41.58
18569;BME280;14780;48.316;-1.050;2023-05-12T08:02:40;99309.41;;;23.23;41.43
18569;BME280;14780;48.316;-1.050;2023-05-12T08:05:25;99316.78;;;23.23;41.50
18569;BME280;14780;48.316;-1.050;2023-05-12T08:08:10;99302.59;;;23.21;41.60
18569;BME280;14780;48.316;-1.050;2023-05-12T08:11:00;99317.59;;;23.23;41.42
18569;BME280;14780;48.316;-1.050;2023-05-12T08:13:44;99316.25;;;23.26;41.31
18569;BME280;14780;48.316;-1.050;2023-05-12T08:16:29;99320.63;;;23.27;41.36
18569;BME280;14780;48.316;-1.050;2023-05-12T08:19:14;99317.59;;;23.23;41.36
18569;BME280;14780;48.316;-1.050;2023-05-12T08:21:59;99325.78;;;23.23;41.22
18569;BME280;14780;48.316;-1.050;2023-05-12T08:24:45;99319.53;;;23.23;41.32
18569;BME280;14780;48.316;-1.050;2023-05-12T08:27:30;99323.91;;;23.24;41.25
18569;BME280;14780;48.316;-1.050;2023-05-12T08:30:15;99324.72;;;23.24;41.31
18569;BME280;14780;48.316;-1.050;2023-05-12T08:33:00;99328.50;;;23.23;41.31
18569;BME280;14780;48.316;-1.050;2023-05-12T08:35:46;99343.56;;;23.26;41.27
18569;BME280;14780;48.316;-1.050;2023-05-12T08:38:31;99331.53;;;23.27;41.21
18569;BME280;14780;48.316;-1.050;2023-05-12T08:41:24;99335.94;;;23.28;41.20
18569;BME280;14780;48.316;-1.050;2023-05-12T08:44:15;99339.22;;;23.30;41.25
18569;BME280;14780;48.316;-1.050;2023-05-12T08:47:03;99345.50;;;23.30;41.08
18569;BME280;14780;48.316;-1.050;2023-05-12T08:49:57;99344.16;;;23.33;41.14
18569;BME280;14780;48.316;-1.050;2023-05-12T08:52:43;99336.75;;;23.28;41.16
18569;BME280;14780;48.316;-1.050;2023-05-12T08:55:28;99351.78;;;23.31;41.17
18569;BME280;14780;48.316;-1.050;2023-05-12T08:58:14;99347.16;;;23.31;41.18
18569;BME280;14780;48.316;-1.050;2023-05-12T09:00:59;99334.56;;;23.30;41.23
18569;BME280;14780;48.316;-1.050;2023-05-12T09:03:50;99346.34;;;23.31;41.15
18569;BME280;14780;48.316;-1.050;2023-05-12T09:06:35;99340.88;;;23.31;41.24
18569;BME280;14780;48.316;-1.050;2023-05-12T09:09:20;99357.56;;;23.34;41.21
18569;BME280;14780;48.316;-1.050;2023-05-12T09:12:06;99345.53;;;23.35;41.23
18569;BME280;14780;48.316;-1.050;2023-05-12T09:15:03;99344.75;;;23.39;41.21
18569;BME280;14780;48.316;-1.050;2023-05-12T09:17:48;99363.34;;;23.42;41.24
18569;BME280;14780;48.316;-1.050;2023-05-12T09:20:33;99354.63;;;23.45;41.11
18569;BME280;14780;48.316;-1.050;2023-05-12T09:23:20;99362.03;;;23.50;41.12
18569;BME280;14780;48.316;-1.050;2023-05-12T09:26:05;99365.34;;;23.52;41.01
18569;BME280;14780;48.316;-1.050;2023-05-12T09:28:53;99355.78;;;23.54;41.05
18569;BME280;14780;48.316;-1.050;2023-05-12T09:31:38;99359.63;;;23.58;41.00
18569;BME280;14780;48.316;-1.050;2023-05-12T09:34:33;99366.19;;;23.62;41.04
18569;BME280;14780;48.316;-1.050;2023-05-12T09:37:30;99358.59;;;23.64;40.96
18569;BME280;14780;48.316;-1.050;2023-05-12T09:40:16;99370.59;;;23.68;40.94
18569;BME280;14780;48.316;-1.050;2023-05-12T09:43:01;99367.91;;;23.73;41.03
18569;BME280;14780;48.316;-1.050;2023-05-12T09:45:46;99371.19;;;23.75;40.92
18569;BME280;14780;48.316;-1.050;2023-05-12T09:48:33;99372.28;;;23.74;40.82
18569;BME280;14780;48.316;-1.050;2023-05-12T09:51:18;99367.38;;;23.76;40.81
18569;BME280;14780;48.316;-1.050;2023-05-12T09:54:02;99365.22;;;23.78;40.82
18569;BME280;14780;48.316;-1.050;2023-05-12T09:56:47;99361.41;;;23.79;40.77
18569;BME280;14780;48.316;-1.050;2023-05-12T09:59:33;99368.81;;;23.84;40.77
18569;BME280;14780;48.316;-1.050;2023-05-12T10:02:19;99370.44;;;23.85;40.80
18569;BME280;14780;48.316;-1.050;2023-05-12T10:05:07;99375.38;;;23.88;40.79
18569;BME280;14780;48.316;-1.050;2023-05-12T10:07:57;99367.78;;;23.90;40.63
18569;BME280;14780;48.316;-1.050;2023-05-12T10:10:45;99367.47;;;23.91;40.59
18569;BME280;14780;48.316;-1.050;2023-05-12T10:13:32;99375.69;;;23.91;40.70
18569;BME280;14780;48.316;-1.050;2023-05-12T10:16:18;99374.63;;;23.92;40.63
18569;BME280;14780;48.316;-1.050;2023-05-12T10:19:04;99374.03;;;23.90;40.52
18569;BME280;14780;48.316;-1.050;2023-05-12T10:21:49;99380.34;;;23.91;40.51
18569;BME280;14780;48.316;-1.050;2023-05-12T10:24:34;99379.00;;;23.93;40.49
18569;BME280;14780;48.316;-1.050;2023-05-12T10:27:20;99375.16;;;23.94;40.57
18569;BME280;14780;48.316;-1.050;2023-05-12T10:30:07;99383.13;;;23.96;40.43
18569;BME280;14780;48.316;-1.050;2023-05-12T10:32:53;99377.34;;;23.97;40.48
18569;BME280;14780;48.316;-1.050;2023-05-12T10:35:39;99377.94;;;23.99;40.48
18569;BME280;14780;48.316;-1.050;2023-05-12T10:38:35;99377.41;;;24.02;40.46
18569;BME280;14780;48.316;-1.050;2023-05-12T10:41:31;99376.56;;;24.02;40.61
18569;BME280;14780;48.316;-1.050;2023-05-12T10:44:26;99372.47;;;24.04;40.49
18569;BME280;14780;48.316;-1.050;2023-05-12T10:47:12;99374.66;;;24.02;40.53
18569;BME280;14780;48.316;-1.050;2023-05-12T10:50:00;99372.47;;;24.04;40.51
18569;BME280;14780;48.316;-1.050;2023-05-12T10:52:55;99376.84;;;24.05;40.62
18569;BME280;14780;48.316;-1.050;2023-05-12T10:55:43;99370.56;;;24.05;40.64
18569;BME280;14780;48.316;-1.050;2023-05-12T10:58:33;99363.75;;;24.07;40.40
18569;BME280;14780;48.316;-1.050;2023-05-12T11:01:23;99365.41;;;24.08;40.69
18569;BME280;14780;48.316;-1.050;2023-05-12T11:04:15;99363.22;;;24.10;40.58
18569;BME280;14780;48.316;-1.050;2023-05-12T11:07:00;99358.28;;;24.12;40.55
18569;BME280;14780;48.316;-1.050;2023-05-12T11:09:46;99354.50;;;24.13;40.43
18569;BME280;14780;48.316;-1.050;2023-05-12T11:12:33;99358.88;;;24.14;40.37
18569;BME280;14780;48.316;-1.050;2023-05-12T11:15:22;99361.03;;;24.12;40.33
18569;BME280;14780;48.316;-1.050;2023-05-12T11:18:06;99358.03;;;24.14;40.26
18569;BME280;14780;48.316;-1.050;2023-05-12T11:20:51;99366.22;;;24.14;40.20
18569;BME280;14780;48.316;-1.050;2023-05-12T11:23:36;99364.59;;;24.13;40.25
18569;BME280;14780;48.316;-1.050;2023-05-12T11:26:21;99362.69;;;24.13;40.10
18569;BME280;14780;48.316;-1.050;2023-05-12T11:29:05;99362.13;;;24.11;40.13
18569;BME280;14780;48.316;-1.050;2023-05-12T11:31:51;99366.22;;;24.14;39.96
18569;BME280;14780;48.316;-1.050;2023-05-12T11:34:36;99370.59;;;24.15;40.00
18569;BME280;14780;48.316;-1.050;2023-05-12T11:37:22;99366.78;;;24.16;39.84
18569;BME280;14780;48.316;-1.050;2023-05-12T11:40:17;99358.59;;;24.21;39.87
18569;BME280;14780;48.316;-1.050;2023-05-12T11:43:09;99359.16;;;24.23;39.78
18569;BME280;14780;48.316;-1.050;2023-05-12T11:45:53;99362.72;;;24.23;39.53
18569;BME280;14780;48.316;-1.050;2023-05-12T11:48:38;99355.06;;;24.25;39.90
18569;BME280;14780;48.316;-1.050;2023-05-12T11:51:24;99351.81;;;24.28;39.80
18569;BME280;14780;48.316;-1.050;2023-05-12T11:54:09;99352.09;;;24.32;39.82
18569;BME280;14780;48.316;-1.050;2023-05-12T11:56:55;99354.81;;;24.37;39.70
18569;BME280;14780;48.316;-1.050;2023-05-12T11:59:40;99359.47;;;24.41;39.66
18569;BME280;14780;48.316;-1.050;2023-05-12T12:02:25;99352.94;;;24.42;39.77
18569;BME280;14780;48.316;-1.050;2023-05-12T12:05:17;99346.09;;;24.45;39.64
18569;BME280;14780;48.316;-1.050;2023-05-12T12:08:15;99363.88;;;24.47;39.61
18569;BME280;14780;48.316;-1.050;2023-05-12T12:10:59;99342.28;;;24.51;39.69
18569;BME280;14780;48.316;-1.050;2023-05-12T12:13:51;99343.91;;;24.52;39.59
18569;BME280;14780;48.316;-1.050;2023-05-12T12:16:40;99358.69;;;24.51;39.53
18569;BME280;14780;48.316;-1.050;2023-05-12T12:19:24;99358.44;;;24.52;39.50
18569;BME280;14780;48.316;-1.050;2023-05-12T12:22:11;99355.19;;;24.55;39.70
18569;BME280;14780;48.316;-1.050;2023-05-12T12:24:56;99344.22;;;24.55;39.55
18569;BME280;14780;48.316;-1.050;2023-05-12T12:27:40;99354.09;;;24.56;39.72
18569;BME280;14780;48.316;-1.050;2023-05-12T12:30:25;99356.81;;;24.56;39.55
18569;BME280;14780;48.316;-1.050;2023-05-12T12:33:10;99360.06;;;24.53;39.68
18569;BME280;14780;48.316;-1.050;2023-05-12T12:35:56;99356.78;;;24.51;39.66
18569;BME280;14780;48.316;-1.050;2023-05-12T12:38:41;99360.63;;;24.50;39.68
18569;BME280;14780;48.316;-1.050;2023-05-12T12:41:26;99348.31;;;24.53;39.62
18569;BME280;14780;48.316;-1.050;2023-05-12T12:44:11;99350.78;;;24.54;39.64
18569;BME280;14780;48.316;-1.050;2023-05-12T12:46:56;99350.78;;;24.54;39.64
18569;BME280;14780;48.316;-1.050;2023-05-12T12:49:40;99343.72;;;24.58;39.53
18569;BME280;14780;48.316;-1.050;2023-05-12T12:52:25;99344.53;;;24.59;39.50
18569;BME280;14780;48.316;-1.050;2023-05-12T12:55:10;99346.16;;;24.60;39.54
18569;BME280;14780;48.316;-1.050;2023-05-12T12:57:54;99350.81;;;24.59;39.24
18569;BME280;14780;48.316;-1.050;2023-05-12T13:00:39;99349.19;;;24.58;39.38
18569;BME280;14780;48.316;-1.050;2023-05-12T13:03:24;99347.00;;;24.65;39.22
18569;BME280;14780;48.316;-1.050;2023-05-12T13:06:09;99338.53;;;24.62;39.34
18569;BME280;14780;48.316;-1.050;2023-05-12T13:08:54;99343.16;;;24.61;39.26
18569;BME280;14780;48.316;-1.050;2023-05-12T13:11:39;99344.25;;;24.60;39.39
18569;BME280;14780;48.316;-1.050;2023-05-12T13:14:24;99351.63;;;24.60;39.48
18569;BME280;14780;48.316;-1.050;2023-05-12T13:17:09;99349.19;;;24.58;39.52
18569;BME280;14780;48.316;-1.050;2023-05-12T13:19:54;99354.09;;;24.56;39.48
18569;BME280;14780;48.316;-1.050;2023-05-12T13:22:40;99343.41;;;24.55;39.45
18569;BME280;14780;48.316;-1.050;2023-05-12T13:25:25;99343.66;;;24.53;39.45
18569;BME280;14780;48.316;-1.050;2023-05-12T13:28:10;99345.06;;;24.56;39.53
18569;BME280;14780;48.316;-1.050;2023-05-12T13:30:54;99340.94;;;24.53;39.42
18569;BME280;14780;48.316;-1.050;2023-05-12T13:33:39;99350.78;;;24.54;39.44
18569;BME280;14780;48.316;-1.050;2023-05-12T13:36:24;99338.19;;;24.53;39.38
18569;BME280;14780;48.316;-1.050;2023-05-12T13:39:10;99336.28;;;24.54;39.54
18569;BME280;14780;48.316;-1.050;2023-05-12T13:41:56;99339.81;;;24.54;39.40
18569;BME280;14780;48.316;-1.050;2023-05-12T13:44:40;99340.41;;;24.56;39.55
18569;BME280;14780;48.316;-1.050;2023-05-12T13:47:25;99339.34;;;24.57;39.59
18569;BME280;14780;48.316;-1.050;2023-05-12T13:50:11;99347.00;;;24.60;39.50
18569;BME280;14780;48.316;-1.050;2023-05-12T13:52:56;99350.81;;;24.59;39.42
18569;BME280;14780;48.316;-1.050;2023-05-12T13:55:40;99347.81;;;24.61;39.39
18569;BME280;14780;48.316;-1.050;2023-05-12T13:58:25;99359.56;;;24.61;39.38
18569;BME280;14780;48.316;-1.050;2023-05-12T14:01:10;99354.66;;;24.63;39.42
18569;BME280;14780;48.316;-1.050;2023-05-12T14:03:55;99355.47;;;24.64;39.40
18569;BME280;14780;48.316;-1.050;2023-05-12T14:06:40;99346.72;;;24.67;39.28
18569;BME280;14780;48.316;-1.050;2023-05-12T14:09:24;99360.13;;;24.68;39.36
18569;BME280;14780;48.316;-1.050;2023-05-12T14:12:10;99363.41;;;24.70;39.47
18569;BME280;14780;48.316;-1.050;2023-05-12T14:14:54;99365.88;;;24.72;39.50
18569;BME280;14780;48.316;-1.050;2023-05-12T14:17:39;99378.47;;;24.73;39.45
18569;BME280;14780;48.316;-1.050;2023-05-12T14:20:24;99372.47;;;24.71;39.51
18569;BME280;14780;48.316;-1.050;2023-05-12T14:23:08;99373.84;;;24.73;39.46
18569;BME280;14780;48.316;-1.050;2023-05-12T14:25:53;99375.47;;;24.74;39.47